sensor_id;sensor_type;location;lat;lon;timestamp;temperature;humidity
38131;DHT22;23947;51.894;4.622;2023-02-11T00:00:37;6.40;1.40
38131;DHT22;23947;51.894;4.622;2023-02-11T00:03:03;6.30;1.40
38131;DHT22;23947;51.894;4.622;2023-02-11T00:05:31;6.30;1.40
38131;DHT22;23947;51.894;4.622;2023-02-11T00:07:57;6.20;1.40
38131;DHT22;23947;51.894;4.622;2023-02-11T00:10:23;6.30;1.40
38131;DHT22;23947;51.894;4.622;2023-02-11T00:12:49;6.20;1.40
38131;DHT22;23947;51.894;4.622;2023-02-11T00:15:14;6.30;1.40
38131;DHT22;23947;51.894;4.622;2023-02-11T00:17:40;6.30;1.40
38131;DHT22;23947;51.894;4.622;2023-02-11T00:20:05;6.30;1.40
38131;DHT22;23947;51.894;4.622;2023-02-11T00:22:31;6.30;1.40
38131;DHT22;23947;51.894;4.622;2023-02-11T00:24:56;6.30;1.40
38131;DHT22;23947;51.894;4.622;2023-02-11T00:27:22;6.20;1.40
38131;DHT22;23947;51.894;4.622;2023-02-11T00:29:47;6.20;1.40
38131;DHT22;23947;51.894;4.622;2023-02-11T00:32:13;6.20;1.40
38131;DHT22;23947;51.894;4.622;2023-02-11T00:34:38;6.30;1.40
38131;DHT22;23947;51.894;4.622;2023-02-11T00:37:04;6.30;1.40
38131;DHT22;23947;51.894;4.622;2023-02-11T00:39:30;6.30;1.40
38131;DHT22;23947;51.894;4.622;2023-02-11T00:41:55;6.30;1.40
38131;DHT22;23947;51.894;4.622;2023-02-11T00:44:21;6.30;1.40
38131;DHT22;23947;51.894;4.622;2023-02-11T00:46:46;6.30;1.40
38131;DHT22;23947;51.894;4.622;2023-02-11T00:49:12;6.30;1.40
38131;DHT22;23947;51.894;4.622;2023-02-11T00:51:38;6.40;1.40
38131;DHT22;23947;51.894;4.622;2023-02-11T00:54:04;6.30;1.40
38131;DHT22;23947;51.894;4.622;2023-02-11T00:56:29;6.30;1.40
38131;DHT22;23947;51.894;4.622;2023-02-11T00:58:55;6.30;1.40
38131;DHT22;23947;51.894;4.622;2023-02-11T01:01:21;6.30;1.40
38131;DHT22;23947;51.894;4.622;2023-02-11T01:03:46;6.30;1.40
38131;DHT22;23947;51.894;4.622;2023-02-11T01:06:12;6.30;1.40
38131;DHT22;23947;51.894;4.622;2023-02-11T01:08:37;6.30;1.40
38131;DHT22;23947;51.894;4.622;2023-02-11T01:11:04;6.40;1.40
38131;DHT22;23947;51.894;4.622;2023-02-11T01:13:31;6.30;1.40
38131;DHT22;23947;51.894;4.622;2023-02-11T01:15:57;6.30;1.40
38131;DHT22;23947;51.894;4.622;2023-02-11T01:18:23;6.30;1.40
38131;DHT22;23947;51.894;4.622;2023-02-11T01:20:50;6.30;1.40
38131;DHT22;23947;51.894;4.622;2023-02-11T01:23:15;6.30;1.40
38131;DHT22;23947;51.894;4.622;2023-02-11T01:25:41;6.30;1.40
38131;DHT22;23947;51.894;4.622;2023-02-11T01:28:09;6.30;1.40
38131;DHT22;23947;51.894;4.622;2023-02-11T01:30:36;6.20;1.40
38131;DHT22;23947;51.894;4.622;2023-02-11T01:33:01;6.20;1.40
38131;DHT22;23947;51.894;4.622;2023-02-11T01:35:27;6.20;1.40
38131;DHT22;23947;51.894;4.622;2023-02-11T01:37:52;6.30;1.40
38131;DHT22;23947;51.894;4.622;2023-02-11T01:40:18;6.30;1.40
38131;DHT22;23947;51.894;4.622;2023-02-11T01:42:43;6.30;1.40
38131;DHT22;23947;51.894;4.622;2023-02-11T01:47:53;6.20;1.40
38131;DHT22;23947;51.894;4.622;2023-02-11T01:50:19;6.20;1.40
38131;DHT22;23947;51.894;4.622;2023-02-11T01:52:44;6.30;1.40
38131;DHT22;23947;51.894;4.622;2023-02-11T01:55:12;6.20;1.40
38131;DHT22;23947;51.894;4.622;2023-02-11T01:57:58;6.20;1.40
38131;DHT22;23947;51.894;4.622;2023-02-11T02:00:34;6.20;1.40
38131;DHT22;23947;51.894;4.622;2023-02-11T02:10:18;6.10;1.40
38131;DHT22;23947;51.894;4.622;2023-02-11T02:12:44;6.10;1.40
38131;DHT22;23947;51.894;4.622;2023-02-11T02:15:20;6.10;1.40
38131;DHT22;23947;51.894;4.622;2023-02-11T02:18:05;6.00;1.40
38131;DHT22;23947;51.894;4.622;2023-02-11T02:23:03;5.90;1.40
38131;DHT22;23947;51.894;4.622;2023-02-11T02:25:46;5.90;1.40
38131;DHT22;23947;51.894;4.622;2023-02-11T02:36:27;5.70;1.40
38131;DHT22;23947;51.894;4.622;2023-02-11T02:38:59;5.70;1.40
38131;DHT22;23947;51.894;4.622;2023-02-11T02:41:27;5.70;1.40
38131;DHT22;23947;51.894;4.622;2023-02-11T02:43:53;5.60;1.40
38131;DHT22;23947;51.894;4.622;2023-02-11T02:46:20;5.70;1.40
38131;DHT22;23947;51.894;4.622;2023-02-11T02:48:46;5.60;1.40
38131;DHT22;23947;51.894;4.622;2023-02-11T02:54:06;5.60;1.40
38131;DHT22;23947;51.894;4.622;2023-02-11T03:02:02;5.60;1.40
38131;DHT22;23947;51.894;4.622;2023-02-11T03:09:57;5.50;1.40
38131;DHT22;23947;51.894;4.622;2023-02-11T03:12:23;5.50;1.40
38131;DHT22;23947;51.894;4.622;2023-02-11T03:14:51;5.50;1.40
38131;DHT22;23947;51.894;4.622;2023-02-11T03:17:16;5.50;1.40
38131;DHT22;23947;51.894;4.622;2023-02-11T03:19:43;5.50;1.40
38131;DHT22;23947;51.894;4.622;2023-02-11T03:22:10;5.50;1.40
38131;DHT22;23947;51.894;4.622;2023-02-11T03:24:36;5.50;1.40
38131;DHT22;23947;51.894;4.622;2023-02-11T03:32:28;5.50;1.40
38131;DHT22;23947;51.894;4.622;2023-02-11T03:34:57;5.50;1.40
38131;DHT22;23947;51.894;4.622;2023-02-11T03:37:58;5.50;1.40
38131;DHT22;23947;51.894;4.622;2023-02-11T03:40:18;5.50;1.40
38131;DHT22;23947;51.894;4.622;2023-02-11T03:42:55;5.40;1.40
38131;DHT22;23947;51.894;4.622;2023-02-11T03:45:22;5.50;1.40
38131;DHT22;23947;51.894;4.622;2023-02-11T03:47:54;5.50;1.40
38131;DHT22;23947;51.894;4.622;2023-02-11T03:50:20;5.50;1.40
38131;DHT22;23947;51.894;4.622;2023-02-11T03:52:46;5.50;1.40
38131;DHT22;23947;51.894;4.622;2023-02-11T03:55:14;5.50;1.40
38131;DHT22;23947;51.894;4.622;2023-02-11T03:57:40;5.40;1.40
38131;DHT22;23947;51.894;4.622;2023-02-11T04:00:06;5.50;1.40
38131;DHT22;23947;51.894;4.622;2023-02-11T04:02:33;5.50;1.40
38131;DHT22;23947;51.894;4.622;2023-02-11T04:04:59;5.50;1.40
38131;DHT22;23947;51.894;4.622;2023-02-11T04:07:25;5.50;1.40
38131;DHT22;23947;51.894;4.622;2023-02-11T04:09:51;5.50;1.40
38131;DHT22;23947;51.894;4.622;2023-02-11T04:12:16;5.50;1.40
38131;DHT22;23947;51.894;4.622;2023-02-11T04:14:42;5.50;1.40
38131;DHT22;23947;51.894;4.622;2023-02-11T04:17:07;5.50;1.40
38131;DHT22;23947;51.894;4.622;2023-02-11T04:19:33;5.50;1.40
38131;DHT22;23947;51.894;4.622;2023-02-11T04:21:58;5.50;1.40
38131;DHT22;23947;51.894;4.622;2023-02-11T04:24:24;5.50;1.40
38131;DHT22;23947;51.894;4.622;2023-02-11T04:26:49;5.50;1.40
38131;DHT22;23947;51.894;4.622;2023-02-11T04:29:15;5.50;1.40
38131;DHT22;23947;51.894;4.622;2023-02-11T04:31:40;5.40;1.40
38131;DHT22;23947;51.894;4.622;2023-02-11T04:34:06;5.40;1.40
38131;DHT22;23947;51.894;4.622;2023-02-11T04:36:31;5.40;1.40
38131;DHT22;23947;51.894;4.622;2023-02-11T04:38:57;5.40;1.40
38131;DHT22;23947;51.894;4.622;2023-02-11T04:41:22;5.40;1.40
38131;DHT22;23947;51.894;4.622;2023-02-11T04:43:48;5.40;1.40
38131;DHT22;23947;51.894;4.622;2023-02-11T04:46:13;5.40;1.40
38131;DHT22;23947;51.894;4.622;2023-02-11T04:48:39;5.40;1.40
38131;DHT22;23947;51.894;4.622;2023-02-11T04:51:04;5.40;1.40
38131;DHT22;23947;51.894;4.622;2023-02-11T04:53:30;5.40;1.40
38131;DHT22;23947;51.894;4.622;2023-02-11T04:55:55;5.40;1.40
38131;DHT22;23947;51.894;4.622;2023-02-11T04:58:21;5.40;1.40
38131;DHT22;23947;51.894;4.622;2023-02-11T05:00:46;5.40;1.40
38131;DHT22;23947;51.894;4.622;2023-02-11T05:03:12;5.40;1.40
38131;DHT22;23947;51.894;4.622;2023-02-11T05:05:38;5.40;1.40
38131;DHT22;23947;51.894;4.622;2023-02-11T05:08:05;5.40;1.40
38131;DHT22;23947;51.894;4.622;2023-02-11T05:10:30;5.40;1.40
38131;DHT22;23947;51.894;4.622;2023-02-11T05:12:56;5.40;1.40
38131;DHT22;23947;51.894;4.622;2023-02-11T05:15:21;5.40;1.40
38131;DHT22;23947;51.894;4.622;2023-02-11T05:17:47;5.40;1.40
38131;DHT22;23947;51.894;4.622;2023-02-11T05:20:13;5.40;1.40
38131;DHT22;23947;51.894;4.622;2023-02-11T05:22:38;5.40;1.40
38131;DHT22;23947;51.894;4.622;2023-02-11T05:25:04;5.40;1.40
38131;DHT22;23947;51.894;4.622;2023-02-11T05:27:29;5.50;1.40
38131;DHT22;23947;51.894;4.622;2023-02-11T05:29:55;5.50;1.40
38131;DHT22;23947;51.894;4.622;2023-02-11T05:32:20;5.40;1.40
38131;DHT22;23947;51.894;4.622;2023-02-11T05:34:46;5.40;1.40
38131;DHT22;23947;51.894;4.622;2023-02-11T05:37:11;5.40;1.40
38131;DHT22;23947;51.894;4.622;2023-02-11T05:39:37;5.30;1.40
38131;DHT22;23947;51.894;4.622;2023-02-11T05:42:03;5.30;1.40
38131;DHT22;23947;51.894;4.622;2023-02-11T05:44:28;5.40;1.40
38131;DHT22;23947;51.894;4.622;2023-02-11T05:46:54;5.30;1.40
38131;DHT22;23947;51.894;4.622;2023-02-11T05:49:19;5.40;1.40
38131;DHT22;23947;51.894;4.622;2023-02-11T05:51:45;5.40;1.40
38131;DHT22;23947;51.894;4.622;2023-02-11T05:54:10;5.40;1.40
38131;DHT22;23947;51.894;4.622;2023-02-11T05:56:36;5.40;1.40
38131;DHT22;23947;51.894;4.622;2023-02-11T05:59:01;5.40;1.40
38131;DHT22;23947;51.894;4.622;2023-02-11T06:01:27;5.30;1.40
38131;DHT22;23947;51.894;4.622;2023-02-11T06:03:52;5.30;1.40
38131;DHT22;23947;51.894;4.622;2023-02-11T06:06:18;5.30;1.40
38131;DHT22;23947;51.894;4.622;2023-02-11T06:08:45;5.30;1.40
38131;DHT22;23947;51.894;4.622;2023-02-11T06:11:12;5.30;1.40
38131;DHT22;23947;51.894;4.622;2023-02-11T06:13:38;5.30;1.40
38131;DHT22;23947;51.894;4.622;2023-02-11T06:16:04;5.30;1.40
38131;DHT22;23947;51.894;4.622;2023-02-11T06:18:29;5.30;1.40
38131;DHT22;23947;51.894;4.622;2023-02-11T06:20:56;5.30;1.40
38131;DHT22;23947;51.894;4.622;2023-02-11T06:23:21;5.30;1.40
38131;DHT22;23947;51.894;4.622;2023-02-11T06:25:47;5.30;1.40
38131;DHT22;23947;51.894;4.622;2023-02-11T06:28:13;5.30;1.40
38131;DHT22;23947;51.894;4.622;2023-02-11T06:30:38;5.30;1.40
38131;DHT22;23947;51.894;4.622;2023-02-11T06:33:04;5.30;1.40
38131;DHT22;23947;51.894;4.622;2023-02-11T06:35:29;5.30;1.40
38131;DHT22;23947;51.894;4.622;2023-02-11T06:37:55;5.30;1.40
38131;DHT22;23947;51.894;4.622;2023-02-11T06:40:20;5.40;1.40
38131;DHT22;23947;51.894;4.622;2023-02-11T06:42:46;5.40;1.40
38131;DHT22;23947;51.894;4.622;2023-02-11T06:45:11;5.40;1.40
38131;DHT22;23947;51.894;4.622;2023-02-11T06:47:38;5.40;1.40
38131;DHT22;23947;51.894;4.622;2023-02-11T06:50:04;5.30;1.40
38131;DHT22;23947;51.894;4.622;2023-02-11T06:52:30;5.30;1.40
38131;DHT22;23947;51.894;4.622;2023-02-11T06:54:55;5.30;1.40
38131;DHT22;23947;51.894;4.622;2023-02-11T06:57:21;5.40;1.40
38131;DHT22;23947;51.894;4.622;2023-02-11T06:59:46;5.30;1.40
38131;DHT22;23947;51.894;4.622;2023-02-11T07:02:12;5.30;1.40
38131;DHT22;23947;51.894;4.622;2023-02-11T07:04:37;5.30;1.40
38131;DHT22;23947;51.894;4.622;2023-02-11T07:07:03;5.30;1.40
38131;DHT22;23947;51.894;4.622;2023-02-11T07:09:28;5.30;1.40
38131;DHT22;23947;51.894;4.622;2023-02-11T07:11:54;5.30;1.40
38131;DHT22;23947;51.894;4.622;2023-02-11T07:14:19;5.20;1.40
38131;DHT22;23947;51.894;4.622;2023-02-11T07:16:45;5.20;1.40
38131;DHT22;23947;51.894;4.622;2023-02-11T07:19:10;5.20;1.40
38131;DHT22;23947;51.894;4.622;2023-02-11T07:21:36;5.20;1.40
38131;DHT22;23947;51.894;4.622;2023-02-11T07:24:04;5.30;1.40
38131;DHT22;23947;51.894;4.622;2023-02-11T07:26:30;5.20;1.40
38131;DHT22;23947;51.894;4.622;2023-02-11T07:28:55;5.20;1.40
38131;DHT22;23947;51.894;4.622;2023-02-11T07:31:22;5.20;1.40
38131;DHT22;23947;51.894;4.622;2023-02-11T07:33:48;5.20;1.40
38131;DHT22;23947;51.894;4.622;2023-02-11T07:36:14;5.20;1.40
38131;DHT22;23947;51.894;4.622;2023-02-11T07:38:40;5.20;1.40
38131;DHT22;23947;51.894;4.622;2023-02-11T07:41:07;5.20;1.40
38131;DHT22;23947;51.894;4.622;2023-02-11T07:43:33;5.20;1.40
38131;DHT22;23947;51.894;4.622;2023-02-11T07:46:02;5.20;1.40
38131;DHT22;23947;51.894;4.622;2023-02-11T07:48:28;5.20;1.40
38131;DHT22;23947;51.894;4.622;2023-02-11T07:50:53;5.20;1.40
38131;DHT22;23947;51.894;4.622;2023-02-11T07:53:22;5.30;1.40
38131;DHT22;23947;51.894;4.622;2023-02-11T07:55:48;5.30;1.40
38131;DHT22;23947;51.894;4.622;2023-02-11T07:58:13;5.30;1.40
38131;DHT22;23947;51.894;4.622;2023-02-11T08:00:39;5.30;1.40
38131;DHT22;23947;51.894;4.622;2023-02-11T08:03:04;5.30;1.40
38131;DHT22;23947;51.894;4.622;2023-02-11T08:05:32;5.30;1.40
38131;DHT22;23947;51.894;4.622;2023-02-11T08:07:58;5.40;1.40
38131;DHT22;23947;51.894;4.622;2023-02-11T08:10:23;5.40;1.40
38131;DHT22;23947;51.894;4.622;2023-02-11T08:12:48;5.40;1.40
38131;DHT22;23947;51.894;4.622;2023-02-11T08:15:14;5.50;1.40
38131;DHT22;23947;51.894;4.622;2023-02-11T08:17:40;5.50;1.40
38131;DHT22;23947;51.894;4.622;2023-02-11T08:20:05;5.60;1.40
38131;DHT22;23947;51.894;4.622;2023-02-11T08:22:31;5.60;1.40
38131;DHT22;23947;51.894;4.622;2023-02-11T08:24:57;5.60;1.40
38131;DHT22;23947;51.894;4.622;2023-02-11T08:27:23;5.60;1.40
38131;DHT22;23947;51.894;4.622;2023-02-11T08:29:48;5.70;1.40
38131;DHT22;23947;51.894;4.622;2023-02-11T08:32:14;5.70;1.40
38131;DHT22;23947;51.894;4.622;2023-02-11T08:34:39;5.80;1.40
38131;DHT22;23947;51.894;4.622;2023-02-11T08:37:05;5.80;1.40
38131;DHT22;23947;51.894;4.622;2023-02-11T08:39:30;5.90;1.40
38131;DHT22;23947;51.894;4.622;2023-02-11T08:41:56;6.00;1.40
38131;DHT22;23947;51.894;4.622;2023-02-11T08:44:22;6.00;1.40
38131;DHT22;23947;51.894;4.622;2023-02-11T08:46:48;6.10;1.40
38131;DHT22;23947;51.894;4.622;2023-02-11T08:49:14;6.10;1.40
38131;DHT22;23947;51.894;4.622;2023-02-11T08:51:40;6.20;1.40
38131;DHT22;23947;51.894;4.622;2023-02-11T08:54:05;6.20;1.40
38131;DHT22;23947;51.894;4.622;2023-02-11T08:56:33;6.30;1.40
38131;DHT22;23947;51.894;4.622;2023-02-11T08:58:59;6.30;1.40
38131;DHT22;23947;51.894;4.622;2023-02-11T09:01:28;6.30;1.40
38131;DHT22;23947;51.894;4.622;2023-02-11T09:03:54;6.30;1.40
38131;DHT22;23947;51.894;4.622;2023-02-11T09:06:20;6.30;1.40
38131;DHT22;23947;51.894;4.622;2023-02-11T09:08:47;6.40;1.40
38131;DHT22;23947;51.894;4.622;2023-02-11T09:11:14;6.40;1.40
38131;DHT22;23947;51.894;4.622;2023-02-11T09:13:41;6.40;1.40
38131;DHT22;23947;51.894;4.622;2023-02-11T09:16:07;6.40;1.40
38131;DHT22;23947;51.894;4.622;2023-02-11T09:18:33;6.40;1.40
38131;DHT22;23947;51.894;4.622;2023-02-11T09:21:06;6.50;1.40
38131;DHT22;23947;51.894;4.622;2023-02-11T09:23:31;6.60;1.40
38131;DHT22;23947;51.894;4.622;2023-02-11T09:25:59;6.60;1.40
38131;DHT22;23947;51.894;4.622;2023-02-11T09:28:29;6.60;1.40
38131;DHT22;23947;51.894;4.622;2023-02-11T09:30:54;6.70;1.40
38131;DHT22;23947;51.894;4.622;2023-02-11T09:33:20;6.70;1.40
38131;DHT22;23947;51.894;4.622;2023-02-11T09:35:45;6.70;1.40
38131;DHT22;23947;51.894;4.622;2023-02-11T09:38:11;6.80;1.40
38131;DHT22;23947;51.894;4.622;2023-02-11T09:40:40;6.80;1.40
38131;DHT22;23947;51.894;4.622;2023-02-11T09:43:06;6.90;1.40
38131;DHT22;23947;51.894;4.622;2023-02-11T09:45:36;6.90;1.40
38131;DHT22;23947;51.894;4.622;2023-02-11T09:48:03;7.00;1.40
38131;DHT22;23947;51.894;4.622;2023-02-11T09:50:31;7.00;1.40
38131;DHT22;23947;51.894;4.622;2023-02-11T09:53:02;7.10;1.40
38131;DHT22;23947;51.894;4.622;2023-02-11T09:55:30;7.10;1.40
38131;DHT22;23947;51.894;4.622;2023-02-11T09:57:56;7.10;1.40
38131;DHT22;23947;51.894;4.622;2023-02-11T10:00:24;7.20;1.40
38131;DHT22;23947;51.894;4.622;2023-02-11T10:02:55;7.20;1.40
38131;DHT22;23947;51.894;4.622;2023-02-11T10:05:39;7.20;1.40
38131;DHT22;23947;51.894;4.622;2023-02-11T10:08:12;7.30;1.40
38131;DHT22;23947;51.894;4.622;2023-02-11T10:18:45;7.60;1.40
38131;DHT22;23947;51.894;4.622;2023-02-11T10:21:26;7.60;1.40
38131;DHT22;23947;51.894;4.622;2023-02-11T10:23:55;7.70;1.40
38131;DHT22;23947;51.894;4.622;2023-02-11T10:26:21;7.80;1.40
38131;DHT22;23947;51.894;4.622;2023-02-11T10:28:47;7.80;1.40
38131;DHT22;23947;51.894;4.622;2023-02-11T10:36:05;7.90;1.40
38131;DHT22;23947;51.894;4.622;2023-02-11T10:38:31;7.90;1.40
38131;DHT22;23947;51.894;4.622;2023-02-11T10:40:58;8.00;1.40
38131;DHT22;23947;51.894;4.622;2023-02-11T10:43:25;8.10;1.40
38131;DHT22;23947;51.894;4.622;2023-02-11T10:45:51;8.10;1.40
38131;DHT22;23947;51.894;4.622;2023-02-11T10:51:05;8.10;1.40
38131;DHT22;23947;51.894;4.622;2023-02-11T10:53:31;8.10;1.40
38131;DHT22;23947;51.894;4.622;2023-02-11T10:55:58;8.20;1.40
38131;DHT22;23947;51.894;4.622;2023-02-11T10:58:24;8.20;1.40
38131;DHT22;23947;51.894;4.622;2023-02-11T11:00:51;8.20;1.40
38131;DHT22;23947;51.894;4.622;2023-02-11T11:03:18;8.30;1.40
38131;DHT22;23947;51.894;4.622;2023-02-11T11:05:57;8.30;1.40
38131;DHT22;23947;51.894;4.622;2023-02-11T11:11:09;8.40;1.40
38131;DHT22;23947;51.894;4.622;2023-02-11T11:13:35;8.50;1.40
38131;DHT22;23947;51.894;4.622;2023-02-11T11:16:09;8.50;1.40
38131;DHT22;23947;51.894;4.622;2023-02-11T11:18:40;8.50;1.40
38131;DHT22;23947;51.894;4.622;2023-02-11T11:21:10;8.50;1.40
38131;DHT22;23947;51.894;4.622;2023-02-11T11:23:36;8.60;1.40
38131;DHT22;23947;51.894;4.622;2023-02-11T11:26:12;8.60;1.40
38131;DHT22;23947;51.894;4.622;2023-02-11T11:28:38;8.60;1.40
38131;DHT22;23947;51.894;4.622;2023-02-11T11:31:11;8.70;1.40
38131;DHT22;23947;51.894;4.622;2023-02-11T11:33:37;8.70;1.40
38131;DHT22;23947;51.894;4.622;2023-02-11T11:36:06;8.70;1.40
38131;DHT22;23947;51.894;4.622;2023-02-11T11:38:33;8.80;1.40
38131;DHT22;23947;51.894;4.622;2023-02-11T11:46:35;9.00;1.40
38131;DHT22;23947;51.894;4.622;2023-02-11T11:49:12;9.00;1.40
38131;DHT22;23947;51.894;4.622;2023-02-11T11:51:39;9.00;1.40
38131;DHT22;23947;51.894;4.622;2023-02-11T11:54:08;9.10;1.40
38131;DHT22;23947;51.894;4.622;2023-02-11T11:56:36;9.10;1.40
38131;DHT22;23947;51.894;4.622;2023-02-11T11:59:09;9.10;1.40
38131;DHT22;23947;51.894;4.622;2023-02-11T12:04:21;9.10;1.40
38131;DHT22;23947;51.894;4.622;2023-02-11T12:07:09;9.10;1.40
38131;DHT22;23947;51.894;4.622;2023-02-11T12:12:16;9.20;1.40
38131;DHT22;23947;51.894;4.622;2023-02-11T12:15:07;9.20;1.40
38131;DHT22;23947;51.894;4.622;2023-02-11T12:27:56;9.20;1.40
38131;DHT22;23947;51.894;4.622;2023-02-11T12:30:40;9.20;1.40
38131;DHT22;23947;51.894;4.622;2023-02-11T12:35:46;9.30;1.40
38131;DHT22;23947;51.894;4.622;2023-02-11T12:41:13;9.30;1.40
38131;DHT22;23947;51.894;4.622;2023-02-11T12:44:03;9.30;1.40
38131;DHT22;23947;51.894;4.622;2023-02-11T12:46:35;9.30;1.40
38131;DHT22;23947;51.894;4.622;2023-02-11T12:51:39;9.40;1.40
38131;DHT22;23947;51.894;4.622;2023-02-11T12:56:35;9.40;1.40
38131;DHT22;23947;51.894;4.622;2023-02-11T12:59:03;9.50;1.40
38131;DHT22;23947;51.894;4.622;2023-02-11T13:01:34;9.50;1.40
38131;DHT22;23947;51.894;4.622;2023-02-11T13:04:04;9.50;1.40
38131;DHT22;23947;51.894;4.622;2023-02-11T13:06:50;9.50;1.40
38131;DHT22;23947;51.894;4.622;2023-02-11T13:09:17;9.50;1.40
38131;DHT22;23947;51.894;4.622;2023-02-11T13:11:49;9.60;1.40
38131;DHT22;23947;51.894;4.622;2023-02-11T13:14:31;9.60;1.40
38131;DHT22;23947;51.894;4.622;2023-02-11T13:16:59;9.60;1.40
38131;DHT22;23947;51.894;4.622;2023-02-11T13:22:11;9.70;1.40
38131;DHT22;23947;51.894;4.622;2023-02-11T13:27:12;9.70;1.40
38131;DHT22;23947;51.894;4.622;2023-02-11T13:29:56;9.80;1.40
38131;DHT22;23947;51.894;4.622;2023-02-11T13:32:27;9.90;1.40
38131;DHT22;23947;51.894;4.622;2023-02-11T13:35:29;9.80;1.40
38131;DHT22;23947;51.894;4.622;2023-02-11T13:37:55;9.90;1.40
38131;DHT22;23947;51.894;4.622;2023-02-11T13:40:23;9.80;1.40
38131;DHT22;23947;51.894;4.622;2023-02-11T13:42:55;9.80;1.40
38131;DHT22;23947;51.894;4.622;2023-02-11T13:45:27;9.90;1.40
38131;DHT22;23947;51.894;4.622;2023-02-11T13:47:57;9.90;1.40
38131;DHT22;23947;51.894;4.622;2023-02-11T13:50:23;9.90;1.40
38131;DHT22;23947;51.894;4.622;2023-02-11T13:52:54;9.90;1.40
38131;DHT22;23947;51.894;4.622;2023-02-11T13:55:21;9.80;1.40
38131;DHT22;23947;51.894;4.622;2023-02-11T14:14:02;9.80;1.40
38131;DHT22;23947;51.894;4.622;2023-02-11T14:16:40;9.80;1.40
38131;DHT22;23947;51.894;4.622;2023-02-11T14:19:41;9.90;1.40
38131;DHT22;23947;51.894;4.622;2023-02-11T14:22:12;9.80;1.40
38131;DHT22;23947;51.894;4.622;2023-02-11T14:25:22;9.80;1.40
38131;DHT22;23947;51.894;4.622;2023-02-11T14:27:33;9.80;1.40
38131;DHT22;23947;51.894;4.622;2023-02-11T14:30:17;9.70;1.40
38131;DHT22;23947;51.894;4.622;2023-02-11T14:32:48;9.70;1.40
38131;DHT22;23947;51.894;4.622;2023-02-11T14:35:27;9.80;1.40
38131;DHT22;23947;51.894;4.622;2023-02-11T14:38:04;9.80;1.40
38131;DHT22;23947;51.894;4.622;2023-02-11T14:40:44;9.80;1.40
38131;DHT22;23947;51.894;4.622;2023-02-11T14:43:17;9.70;1.40
38131;DHT22;23947;51.894;4.622;2023-02-11T14:45:44;9.70;1.40
38131;DHT22;23947;51.894;4.622;2023-02-11T15:22:03;9.60;1.40
38131;DHT22;23947;51.894;4.622;2023-02-11T15:24:30;9.60;1.40
38131;DHT22;23947;51.894;4.622;2023-02-11T15:29:33;9.50;1.40
38131;DHT22;23947;51.894;4.622;2023-02-11T15:32:11;9.50;1.40
38131;DHT22;23947;51.894;4.622;2023-02-11T15:34:37;9.50;1.40
38131;DHT22;23947;51.894;4.622;2023-02-11T15:37:03;9.60;1.40
38131;DHT22;23947;51.894;4.622;2023-02-11T15:39:31;9.60;1.40
38131;DHT22;23947;51.894;4.622;2023-02-11T15:42:15;9.60;1.40
38131;DHT22;23947;51.894;4.622;2023-02-11T15:44:40;9.60;1.40
38131;DHT22;23947;51.894;4.622;2023-02-11T15:47:10;9.60;1.40
38131;DHT22;23947;51.894;4.622;2023-02-11T15:49:36;9.60;1.40
38131;DHT22;23947;51.894;4.622;2023-02-11T15:52:01;9.60;1.40
38131;DHT22;23947;51.894;4.622;2023-02-11T15:54:27;9.60;1.40
38131;DHT22;23947;51.894;4.622;2023-02-11T15:57:02;9.70;1.40
38131;DHT22;23947;51.894;4.622;2023-02-11T15:59:35;9.70;1.40
38131;DHT22;23947;51.894;4.622;2023-02-11T16:02:06;9.60;1.40
38131;DHT22;23947;51.894;4.622;2023-02-11T16:04:32;9.60;1.40
38131;DHT22;23947;51.894;4.622;2023-02-11T16:06:58;9.60;1.40
38131;DHT22;23947;51.894;4.622;2023-02-11T16:09:26;9.60;1.40
38131;DHT22;23947;51.894;4.622;2023-02-11T16:11:55;9.50;1.40
38131;DHT22;23947;51.894;4.622;2023-02-11T16:16:51;9.50;1.40
38131;DHT22;23947;51.894;4.622;2023-02-11T16:19:18;9.50;1.40
38131;DHT22;23947;51.894;4.622;2023-02-11T16:21:44;9.40;1.40
38131;DHT22;23947;51.894;4.622;2023-02-11T16:24:26;9.40;1.40
38131;DHT22;23947;51.894;4.622;2023-02-11T16:26:59;9.30;1.40
38131;DHT22;23947;51.894;4.622;2023-02-11T16:29:25;9.20;1.40
38131;DHT22;23947;51.894;4.622;2023-02-11T16:31:52;9.20;1.40
38131;DHT22;23947;51.894;4.622;2023-02-11T16:34:19;9.20;1.40
38131;DHT22;23947;51.894;4.622;2023-02-11T16:36:45;9.20;1.40
38131;DHT22;23947;51.894;4.622;2023-02-11T16:39:11;9.10;1.40
38131;DHT22;23947;51.894;4.622;2023-02-11T16:41:37;9.10;1.40
38131;DHT22;23947;51.894;4.622;2023-02-11T16:44:02;9.00;1.40
38131;DHT22;23947;51.894;4.622;2023-02-11T16:46:28;9.10;1.40
38131;DHT22;23947;51.894;4.622;2023-02-11T16:48:54;9.00;1.40
38131;DHT22;23947;51.894;4.622;2023-02-11T16:51:20;9.00;1.40
38131;DHT22;23947;51.894;4.622;2023-02-11T16:53:46;9.00;1.40
38131;DHT22;23947;51.894;4.622;2023-02-11T16:56:13;9.00;1.40
38131;DHT22;23947;51.894;4.622;2023-02-11T16:58:38;9.00;1.40
38131;DHT22;23947;51.894;4.622;2023-02-11T17:01:04;9.00;1.40
38131;DHT22;23947;51.894;4.622;2023-02-11T17:03:30;9.00;1.40
38131;DHT22;23947;51.894;4.622;2023-02-11T17:06:00;9.00;1.40
38131;DHT22;23947;51.894;4.622;2023-02-11T17:08:29;8.90;1.40
38131;DHT22;23947;51.894;4.622;2023-02-11T17:10:54;8.90;1.40
38131;DHT22;23947;51.894;4.622;2023-02-11T17:13:19;8.90;1.40
38131;DHT22;23947;51.894;4.622;2023-02-11T17:15:45;8.90;1.40
38131;DHT22;23947;51.894;4.622;2023-02-11T17:18:11;8.90;1.40
38131;DHT22;23947;51.894;4.622;2023-02-11T17:20:37;8.90;1.40
38131;DHT22;23947;51.894;4.622;2023-02-11T17:23:03;8.90;1.40
38131;DHT22;23947;51.894;4.622;2023-02-11T17:25:28;8.90;1.40
38131;DHT22;23947;51.894;4.622;2023-02-11T17:27:54;8.90;1.40
38131;DHT22;23947;51.894;4.622;2023-02-11T17:30:19;8.80;1.40
38131;DHT22;23947;51.894;4.622;2023-02-11T17:32:47;8.80;1.40
38131;DHT22;23947;51.894;4.622;2023-02-11T17:35:12;8.80;1.40
38131;DHT22;23947;51.894;4.622;2023-02-11T17:37:38;8.90;1.40
38131;DHT22;23947;51.894;4.622;2023-02-11T17:40:04;8.90;1.40
38131;DHT22;23947;51.894;4.622;2023-02-11T17:42:30;8.90;1.40
38131;DHT22;23947;51.894;4.622;2023-02-11T17:44:55;8.90;1.40
38131;DHT22;23947;51.894;4.622;2023-02-11T17:47:21;8.80;1.40
38131;DHT22;23947;51.894;4.622;2023-02-11T17:49:46;8.80;1.40
38131;DHT22;23947;51.894;4.622;2023-02-11T17:52:12;8.80;1.40
38131;DHT22;23947;51.894;4.622;2023-02-11T17:54:37;8.70;1.40
38131;DHT22;23947;51.894;4.622;2023-02-11T17:57:03;8.70;1.40
38131;DHT22;23947;51.894;4.622;2023-02-11T17:59:28;8.70;1.40
38131;DHT22;23947;51.894;4.622;2023-02-11T18:02:00;8.60;1.40
38131;DHT22;23947;51.894;4.622;2023-02-11T18:04:25;8.70;1.40
38131;DHT22;23947;51.894;4.622;2023-02-11T18:06:51;8.60;1.40
38131;DHT22;23947;51.894;4.622;2023-02-11T18:09:18;8.70;1.40
38131;DHT22;23947;51.894;4.622;2023-02-11T18:11:43;8.60;1.40
38131;DHT22;23947;51.894;4.622;2023-02-11T18:14:09;8.60;1.40
38131;DHT22;23947;51.894;4.622;2023-02-11T18:16:35;8.60;1.40
38131;DHT22;23947;51.894;4.622;2023-02-11T18:19:03;8.60;1.40
38131;DHT22;23947;51.894;4.622;2023-02-11T18:21:29;8.60;1.40
38131;DHT22;23947;51.894;4.622;2023-02-11T18:23:54;8.60;1.40
38131;DHT22;23947;51.894;4.622;2023-02-11T18:26:21;8.60;1.40
38131;DHT22;23947;51.894;4.622;2023-02-11T18:28:46;8.60;1.40
38131;DHT22;23947;51.894;4.622;2023-02-11T18:31:12;8.60;1.40
38131;DHT22;23947;51.894;4.622;2023-02-11T18:33:39;8.60;1.40
38131;DHT22;23947;51.894;4.622;2023-02-11T18:36:06;8.60;1.40